sensor_id;sensor_type;location;lat;lon;timestamp;temperature;humidity
25871;DHT22;13689;48.590;7.752;2023-10-31T00:00:06;12.70;99.90
25871;DHT22;13689;48.590;7.752;2023-10-31T00:02:35;12.80;99.90
25871;DHT22;13689;48.590;7.752;2023-10-31T00:05:00;12.70;99.90
25871;DHT22;13689;48.590;7.752;2023-10-31T00:07:26;12.80;99.90
25871;DHT22;13689;48.590;7.752;2023-10-31T00:09:51;12.70;99.90
25871;DHT22;13689;48.590;7.752;2023-10-31T00:12:17;12.80;99.90
25871;DHT22;13689;48.590;7.752;2023-10-31T00:14:42;12.80;99.90
25871;DHT22;13689;48.590;7.752;2023-10-31T00:17:08;12.80;99.90
25871;DHT22;13689;48.590;7.752;2023-10-31T00:19:34;12.80;99.90
25871;DHT22;13689;48.590;7.752;2023-10-31T00:21:59;12.80;99.90
25871;DHT22;13689;48.590;7.752;2023-10-31T00:24:25;12.80;99.90
25871;DHT22;13689;48.590;7.752;2023-10-31T00:26:51;12.80;99.90
25871;DHT22;13689;48.590;7.752;2023-10-31T00:29:17;12.80;99.90
25871;DHT22;13689;48.590;7.752;2023-10-31T00:31:42;12.80;99.90
25871;DHT22;13689;48.590;7.752;2023-10-31T00:34:08;12.80;99.90
25871;DHT22;13689;48.590;7.752;2023-10-31T00:36:34;12.80;99.90
25871;DHT22;13689;48.590;7.752;2023-10-31T00:39:00;12.90;99.90
25871;DHT22;13689;48.590;7.752;2023-10-31T00:41:25;12.90;99.90
25871;DHT22;13689;48.590;7.752;2023-10-31T00:43:51;12.90;99.90
25871;DHT22;13689;48.590;7.752;2023-10-31T00:46:16;12.90;99.90
25871;DHT22;13689;48.590;7.752;2023-10-31T00:48:42;12.90;99.90
25871;DHT22;13689;48.590;7.752;2023-10-31T00:51:07;13.00;99.90
25871;DHT22;13689;48.590;7.752;2023-10-31T00:53:33;13.00;99.90
25871;DHT22;13689;48.590;7.752;2023-10-31T00:55:59;13.00;99.90
25871;DHT22;13689;48.590;7.752;2023-10-31T00:58:24;13.00;99.90
25871;DHT22;13689;48.590;7.752;2023-10-31T01:00:50;13.00;99.90
25871;DHT22;13689;48.590;7.752;2023-10-31T01:03:15;13.00;99.90
25871;DHT22;13689;48.590;7.752;2023-10-31T01:05:41;13.00;99.90
25871;DHT22;13689;48.590;7.752;2023-10-31T01:08:07;13.00;99.90
25871;DHT22;13689;48.590;7.752;2023-10-31T01:10:32;13.10;99.90
25871;DHT22;13689;48.590;7.752;2023-10-31T01:12:58;13.10;99.90
25871;DHT22;13689;48.590;7.752;2023-10-31T01:15:23;13.10;99.90
25871;DHT22;13689;48.590;7.752;2023-10-31T01:17:49;13.00;99.90
25871;DHT22;13689;48.590;7.752;2023-10-31T01:20:14;12.90;99.90
25871;DHT22;13689;48.590;7.752;2023-10-31T01:22:40;13.00;99.90
25871;DHT22;13689;48.590;7.752;2023-10-31T01:25:06;12.90;99.90
25871;DHT22;13689;48.590;7.752;2023-10-31T01:27:32;12.90;99.90
25871;DHT22;13689;48.590;7.752;2023-10-31T01:29:57;13.00;99.90
25871;DHT22;13689;48.590;7.752;2023-10-31T01:32:23;13.00;99.90
25871;DHT22;13689;48.590;7.752;2023-10-31T01:34:49;13.00;99.90
25871;DHT22;13689;48.590;7.752;2023-10-31T01:37:14;13.00;99.90
25871;DHT22;13689;48.590;7.752;2023-10-31T01:39:40;13.00;99.90
25871;DHT22;13689;48.590;7.752;2023-10-31T01:42:06;13.00;99.90
25871;DHT22;13689;48.590;7.752;2023-10-31T01:44:32;13.00;99.90
25871;DHT22;13689;48.590;7.752;2023-10-31T01:46:57;13.00;99.90
25871;DHT22;13689;48.590;7.752;2023-10-31T01:49:23;13.00;99.90
25871;DHT22;13689;48.590;7.752;2023-10-31T01:51:49;12.90;99.90
25871;DHT22;13689;48.590;7.752;2023-10-31T01:54:15;12.80;99.90
25871;DHT22;13689;48.590;7.752;2023-10-31T01:56:41;12.80;99.90
25871;DHT22;13689;48.590;7.752;2023-10-31T01:59:08;12.80;99.90
25871;DHT22;13689;48.590;7.752;2023-10-31T02:01:38;12.80;99.90
25871;DHT22;13689;48.590;7.752;2023-10-31T02:04:05;12.70;99.90
25871;DHT22;13689;48.590;7.752;2023-10-31T02:06:31;12.70;99.90
25871;DHT22;13689;48.590;7.752;2023-10-31T02:08:57;12.70;99.90
25871;DHT22;13689;48.590;7.752;2023-10-31T02:11:22;12.70;99.90
25871;DHT22;13689;48.590;7.752;2023-10-31T02:13:48;12.60;99.90
25871;DHT22;13689;48.590;7.752;2023-10-31T02:16:13;12.60;99.90
25871;DHT22;13689;48.590;7.752;2023-10-31T02:18:39;12.60;99.90
25871;DHT22;13689;48.590;7.752;2023-10-31T02:21:05;12.70;99.90
25871;DHT22;13689;48.590;7.752;2023-10-31T02:23:31;12.70;99.90
25871;DHT22;13689;48.590;7.752;2023-10-31T02:25:57;12.70;99.90
25871;DHT22;13689;48.590;7.752;2023-10-31T02:28:22;12.80;99.90
25871;DHT22;13689;48.590;7.752;2023-10-31T02:30:53;12.80;99.90
25871;DHT22;13689;48.590;7.752;2023-10-31T02:33:19;12.80;99.90
25871;DHT22;13689;48.590;7.752;2023-10-31T02:35:45;12.80;99.90
25871;DHT22;13689;48.590;7.752;2023-10-31T02:38:11;12.80;99.90
25871;DHT22;13689;48.590;7.752;2023-10-31T02:40:36;12.80;99.90
25871;DHT22;13689;48.590;7.752;2023-10-31T02:43:02;12.90;99.90
25871;DHT22;13689;48.590;7.752;2023-10-31T02:45:28;12.90;99.90
25871;DHT22;13689;48.590;7.752;2023-10-31T02:47:53;12.90;99.90
25871;DHT22;13689;48.590;7.752;2023-10-31T02:50:19;12.90;99.90
25871;DHT22;13689;48.590;7.752;2023-10-31T02:52:44;12.90;99.90
25871;DHT22;13689;48.590;7.752;2023-10-31T02:55:10;12.90;99.90
25871;DHT22;13689;48.590;7.752;2023-10-31T02:57:36;12.90;99.90
25871;DHT22;13689;48.590;7.752;2023-10-31T03:00:01;12.90;99.90
25871;DHT22;13689;48.590;7.752;2023-10-31T03:02:27;12.90;99.90
25871;DHT22;13689;48.590;7.752;2023-10-31T03:04:53;12.90;99.90
25871;DHT22;13689;48.590;7.752;2023-10-31T03:07:18;12.90;99.90
25871;DHT22;13689;48.590;7.752;2023-10-31T03:09:44;12.90;99.90
25871;DHT22;13689;48.590;7.752;2023-10-31T03:12:09;12.90;99.90
25871;DHT22;13689;48.590;7.752;2023-10-31T03:14:35;12.90;99.90
25871;DHT22;13689;48.590;7.752;2023-10-31T03:17:01;12.80;99.90
25871;DHT22;13689;48.590;7.752;2023-10-31T03:19:27;12.80;99.90
25871;DHT22;13689;48.590;7.752;2023-10-31T03:21:53;12.80;99.90
25871;DHT22;13689;48.590;7.752;2023-10-31T03:24:18;12.80;99.90
25871;DHT22;13689;48.590;7.752;2023-10-31T03:26:44;12.80;99.90
25871;DHT22;13689;48.590;7.752;2023-10-31T03:29:09;12.80;99.90
25871;DHT22;13689;48.590;7.752;2023-10-31T03:31:35;12.80;99.90
25871;DHT22;13689;48.590;7.752;2023-10-31T03:34:00;12.80;99.70
25871;DHT22;13689;48.590;7.752;2023-10-31T03:36:26;12.80;99.60
25871;DHT22;13689;48.590;7.752;2023-10-31T03:38:51;12.80;99.40
25871;DHT22;13689;48.590;7.752;2023-10-31T03:41:17;12.80;99.10
25871;DHT22;13689;48.590;7.752;2023-10-31T03:43:43;12.80;99.20
25871;DHT22;13689;48.590;7.752;2023-10-31T03:46:08;12.80;98.80
25871;DHT22;13689;48.590;7.752;2023-10-31T03:48:34;12.80;98.50
25871;DHT22;13689;48.590;7.752;2023-10-31T03:50:59;12.80;98.40
25871;DHT22;13689;48.590;7.752;2023-10-31T03:53:25;12.80;98.30
25871;DHT22;13689;48.590;7.752;2023-10-31T03:55:50;12.80;98.10
25871;DHT22;13689;48.590;7.752;2023-10-31T03:58:16;12.90;97.90
25871;DHT22;13689;48.590;7.752;2023-10-31T04:00:42;12.80;97.50
25871;DHT22;13689;48.590;7.752;2023-10-31T04:03:08;12.80;97.60
25871;DHT22;13689;48.590;7.752;2023-10-31T04:05:34;12.90;97.40
25871;DHT22;13689;48.590;7.752;2023-10-31T04:07:59;12.80;97.00
25871;DHT22;13689;48.590;7.752;2023-10-31T04:10:25;12.90;96.90
25871;DHT22;13689;48.590;7.752;2023-10-31T04:12:51;12.90;96.90
25871;DHT22;13689;48.590;7.752;2023-10-31T04:15:17;12.90;96.80
25871;DHT22;13689;48.590;7.752;2023-10-31T04:17:43;12.90;96.70
25871;DHT22;13689;48.590;7.752;2023-10-31T04:20:08;12.90;96.40
25871;DHT22;13689;48.590;7.752;2023-10-31T04:22:34;12.90;96.30
25871;DHT22;13689;48.590;7.752;2023-10-31T04:25:00;12.80;96.20
25871;DHT22;13689;48.590;7.752;2023-10-31T04:27:25;12.90;96.00
25871;DHT22;13689;48.590;7.752;2023-10-31T04:29:51;12.90;95.80
25871;DHT22;13689;48.590;7.752;2023-10-31T04:32:16;12.80;95.70
25871;DHT22;13689;48.590;7.752;2023-10-31T04:34:42;12.80;95.60
25871;DHT22;13689;48.590;7.752;2023-10-31T04:37:08;12.80;95.40
25871;DHT22;13689;48.590;7.752;2023-10-31T04:39:34;12.80;95.40
25871;DHT22;13689;48.590;7.752;2023-10-31T04:42:00;12.80;95.30
25871;DHT22;13689;48.590;7.752;2023-10-31T04:44:26;12.80;95.20
25871;DHT22;13689;48.590;7.752;2023-10-31T04:46:51;12.80;94.90
25871;DHT22;13689;48.590;7.752;2023-10-31T04:49:17;12.80;94.90
25871;DHT22;13689;48.590;7.752;2023-10-31T04:51:43;12.80;94.60
25871;DHT22;13689;48.590;7.752;2023-10-31T04:54:08;12.80;94.60
25871;DHT22;13689;48.590;7.752;2023-10-31T04:56:34;12.80;94.50
25871;DHT22;13689;48.590;7.752;2023-10-31T04:59:00;12.80;94.30
25871;DHT22;13689;48.590;7.752;2023-10-31T05:01:25;12.80;94.20
25871;DHT22;13689;48.590;7.752;2023-10-31T05:03:51;12.80;94.10
25871;DHT22;13689;48.590;7.752;2023-10-31T05:06:21;12.80;94.00
25871;DHT22;13689;48.590;7.752;2023-10-31T05:08:47;12.80;94.00
25871;DHT22;13689;48.590;7.752;2023-10-31T05:11:13;12.80;93.80
25871;DHT22;13689;48.590;7.752;2023-10-31T05:13:39;12.70;93.70
25871;DHT22;13689;48.590;7.752;2023-10-31T05:16:05;12.70;93.60
25871;DHT22;13689;48.590;7.752;2023-10-31T05:18:31;12.70;93.50
25871;DHT22;13689;48.590;7.752;2023-10-31T05:20:56;12.70;93.40
25871;DHT22;13689;48.590;7.752;2023-10-31T05:23:22;12.60;93.60
25871;DHT22;13689;48.590;7.752;2023-10-31T05:25:47;12.60;93.30
25871;DHT22;13689;48.590;7.752;2023-10-31T05:28:13;12.60;93.30
25871;DHT22;13689;48.590;7.752;2023-10-31T05:30:39;12.60;93.30
25871;DHT22;13689;48.590;7.752;2023-10-31T05:33:04;12.60;93.40
25871;DHT22;13689;48.590;7.752;2023-10-31T05:35:30;12.60;93.40
25871;DHT22;13689;48.590;7.752;2023-10-31T05:37:56;12.60;93.30
25871;DHT22;13689;48.590;7.752;2023-10-31T05:40:22;12.60;93.30
25871;DHT22;13689;48.590;7.752;2023-10-31T05:42:50;12.60;93.30
25871;DHT22;13689;48.590;7.752;2023-10-31T05:45:16;12.60;93.20
25871;DHT22;13689;48.590;7.752;2023-10-31T05:47:41;12.60;93.20
25871;DHT22;13689;48.590;7.752;2023-10-31T05:50:07;12.60;93.10
25871;DHT22;13689;48.590;7.752;2023-10-31T05:52:33;12.60;93.10
25871;DHT22;13689;48.590;7.752;2023-10-31T05:54:59;12.60;93.10
25871;DHT22;13689;48.590;7.752;2023-10-31T05:57:25;12.50;93.00
25871;DHT22;13689;48.590;7.752;2023-10-31T05:59:50;12.50;93.10
25871;DHT22;13689;48.590;7.752;2023-10-31T06:02:16;12.50;93.10
25871;DHT22;13689;48.590;7.752;2023-10-31T06:04:41;12.50;93.20
25871;DHT22;13689;48.590;7.752;2023-10-31T06:07:07;12.50;93.20
25871;DHT22;13689;48.590;7.752;2023-10-31T06:09:33;12.50;93.00
25871;DHT22;13689;48.590;7.752;2023-10-31T06:11:59;12.50;93.10
25871;DHT22;13689;48.590;7.752;2023-10-31T06:14:25;12.40;93.00
25871;DHT22;13689;48.590;7.752;2023-10-31T06:16:51;12.40;93.10
25871;DHT22;13689;48.590;7.752;2023-10-31T06:19:16;12.30;93.20
25871;DHT22;13689;48.590;7.752;2023-10-31T06:21:42;12.30;93.40
25871;DHT22;13689;48.590;7.752;2023-10-31T06:24:08;12.30;93.40
25871;DHT22;13689;48.590;7.752;2023-10-31T06:26:33;12.30;93.50
25871;DHT22;13689;48.590;7.752;2023-10-31T06:28:59;12.30;93.60
25871;DHT22;13689;48.590;7.752;2023-10-31T06:31:25;12.30;94.00
25871;DHT22;13689;48.590;7.752;2023-10-31T06:33:50;12.40;93.70
25871;DHT22;13689;48.590;7.752;2023-10-31T06:36:16;12.40;93.70
25871;DHT22;13689;48.590;7.752;2023-10-31T06:38:41;12.40;93.60
25871;DHT22;13689;48.590;7.752;2023-10-31T06:41:07;12.40;94.00
25871;DHT22;13689;48.590;7.752;2023-10-31T06:43:33;12.40;93.70
25871;DHT22;13689;48.590;7.752;2023-10-31T06:45:58;12.50;93.80
25871;DHT22;13689;48.590;7.752;2023-10-31T06:48:26;12.50;93.70
25871;DHT22;13689;48.590;7.752;2023-10-31T06:50:51;12.40;93.70
25871;DHT22;13689;48.590;7.752;2023-10-31T06:53:17;12.50;93.70
25871;DHT22;13689;48.590;7.752;2023-10-31T06:55:42;12.50;93.70
25871;DHT22;13689;48.590;7.752;2023-10-31T06:58:08;12.50;93.80
25871;DHT22;13689;48.590;7.752;2023-10-31T07:00:34;12.50;93.80
25871;DHT22;13689;48.590;7.752;2023-10-31T07:03:00;12.50;93.80
25871;DHT22;13689;48.590;7.752;2023-10-31T07:05:30;12.50;93.90
25871;DHT22;13689;48.590;7.752;2023-10-31T07:07:56;12.60;93.90
25871;DHT22;13689;48.590;7.752;2023-10-31T07:10:22;12.60;94.00
25871;DHT22;13689;48.590;7.752;2023-10-31T07:12:47;12.70;94.00
25871;DHT22;13689;48.590;7.752;2023-10-31T07:15:13;12.70;94.00
25871;DHT22;13689;48.590;7.752;2023-10-31T07:17:39;12.70;94.00
25871;DHT22;13689;48.590;7.752;2023-10-31T07:20:06;12.70;94.00
25871;DHT22;13689;48.590;7.752;2023-10-31T07:22:31;12.80;93.80
25871;DHT22;13689;48.590;7.752;2023-10-31T07:24:57;12.80;93.80
25871;DHT22;13689;48.590;7.752;2023-10-31T07:27:24;12.80;93.80
25871;DHT22;13689;48.590;7.752;2023-10-31T07:29:50;12.90;94.00
25871;DHT22;13689;48.590;7.752;2023-10-31T07:32:16;12.90;93.80
25871;DHT22;13689;48.590;7.752;2023-10-31T07:34:42;12.90;93.80
25871;DHT22;13689;48.590;7.752;2023-10-31T07:37:07;12.90;93.80
25871;DHT22;13689;48.590;7.752;2023-10-31T07:39:33;13.00;93.70
25871;DHT22;13689;48.590;7.752;2023-10-31T07:41:59;13.00;93.50
25871;DHT22;13689;48.590;7.752;2023-10-31T07:44:24;13.00;93.60
25871;DHT22;13689;48.590;7.752;2023-10-31T07:46:50;13.00;93.60
25871;DHT22;13689;48.590;7.752;2023-10-31T07:49:15;13.00;93.70
25871;DHT22;13689;48.590;7.752;2023-10-31T07:51:41;13.00;93.60
25871;DHT22;13689;48.590;7.752;2023-10-31T07:54:07;13.10;93.70
25871;DHT22;13689;48.590;7.752;2023-10-31T07:56:34;13.10;93.60
25871;DHT22;13689;48.590;7.752;2023-10-31T07:59:01;13.10;93.60
25871;DHT22;13689;48.590;7.752;2023-10-31T08:01:27;13.10;93.40
25871;DHT22;13689;48.590;7.752;2023-10-31T08:03:53;13.10;93.70
25871;DHT22;13689;48.590;7.752;2023-10-31T08:06:19;13.10;93.40
25871;DHT22;13689;48.590;7.752;2023-10-31T08:08:44;13.10;93.30
25871;DHT22;13689;48.590;7.752;2023-10-31T08:11:11;13.00;93.40
25871;DHT22;13689;48.590;7.752;2023-10-31T08:13:37;13.10;93.40
25871;DHT22;13689;48.590;7.752;2023-10-31T08:16:05;13.00;93.40
25871;DHT22;13689;48.590;7.752;2023-10-31T08:18:31;13.10;93.40
25871;DHT22;13689;48.590;7.752;2023-10-31T08:20:56;13.10;93.50
25871;DHT22;13689;48.590;7.752;2023-10-31T08:23:24;13.00;93.40
25871;DHT22;13689;48.590;7.752;2023-10-31T08:25:50;13.00;93.40
25871;DHT22;13689;48.590;7.752;2023-10-31T08:28:16;13.00;93.40
25871;DHT22;13689;48.590;7.752;2023-10-31T08:30:42;13.10;93.40
25871;DHT22;13689;48.590;7.752;2023-10-31T08:33:07;13.20;93.30
25871;DHT22;13689;48.590;7.752;2023-10-31T08:35:33;13.30;93.40
25871;DHT22;13689;48.590;7.752;2023-10-31T08:37:59;13.40;93.30
25871;DHT22;13689;48.590;7.752;2023-10-31T08:40:25;13.40;93.30
25871;DHT22;13689;48.590;7.752;2023-10-31T08:42:50;13.50;93.10
25871;DHT22;13689;48.590;7.752;2023-10-31T08:45:16;13.60;93.10
25871;DHT22;13689;48.590;7.752;2023-10-31T08:47:42;13.70;93.10
25871;DHT22;13689;48.590;7.752;2023-10-31T08:50:08;13.80;92.90
25871;DHT22;13689;48.590;7.752;2023-10-31T08:52:37;13.80;92.80
25871;DHT22;13689;48.590;7.752;2023-10-31T08:55:03;13.90;92.60
25871;DHT22;13689;48.590;7.752;2023-10-31T08:57:29;14.00;92.50
25871;DHT22;13689;48.590;7.752;2023-10-31T08:59:55;14.10;92.30
25871;DHT22;13689;48.590;7.752;2023-10-31T09:02:20;14.10;92.10
25871;DHT22;13689;48.590;7.752;2023-10-31T09:04:46;14.20;92.00
25871;DHT22;13689;48.590;7.752;2023-10-31T09:07:12;14.20;91.80
25871;DHT22;13689;48.590;7.752;2023-10-31T09:09:37;14.30;91.70
25871;DHT22;13689;48.590;7.752;2023-10-31T09:12:04;14.90;91.70
25871;DHT22;13689;48.590;7.752;2023-10-31T09:14:30;15.20;91.30
25871;DHT22;13689;48.590;7.752;2023-10-31T09:16:56;15.40;91.00
25871;DHT22;13689;48.590;7.752;2023-10-31T09:19:21;15.30;90.70
25871;DHT22;13689;48.590;7.752;2023-10-31T09:21:47;15.10;90.40
25871;DHT22;13689;48.590;7.752;2023-10-31T09:24:13;14.90;90.50
25871;DHT22;13689;48.590;7.752;2023-10-31T09:26:42;14.80;90.60
25871;DHT22;13689;48.590;7.752;2023-10-31T09:29:09;14.80;90.70
25871;DHT22;13689;48.590;7.752;2023-10-31T09:31:35;14.70;90.60
25871;DHT22;13689;48.590;7.752;2023-10-31T09:34:01;14.60;90.50
25871;DHT22;13689;48.590;7.752;2023-10-31T09:36:31;14.60;90.50
25871;DHT22;13689;48.590;7.752;2023-10-31T09:38:57;14.70;90.50
25871;DHT22;13689;48.590;7.752;2023-10-31T09:41:23;14.70;90.30
25871;DHT22;13689;48.590;7.752;2023-10-31T09:43:48;14.70;90.20
25871;DHT22;13689;48.590;7.752;2023-10-31T09:46:16;14.80;90.10
25871;DHT22;13689;48.590;7.752;2023-10-31T09:48:43;14.80;90.00
25871;DHT22;13689;48.590;7.752;2023-10-31T09:51:09;14.80;89.80
25871;DHT22;13689;48.590;7.752;2023-10-31T09:53:37;14.80;89.30
25871;DHT22;13689;48.590;7.752;2023-10-31T09:56:07;14.90;89.30
25871;DHT22;13689;48.590;7.752;2023-10-31T09:58:33;15.00;89.00
25871;DHT22;13689;48.590;7.752;2023-10-31T10:00:58;15.10;89.00
25871;DHT22;13689;48.590;7.752;2023-10-31T10:03:24;15.40;88.40
25871;DHT22;13689;48.590;7.752;2023-10-31T10:05:50;15.50;87.70
25871;DHT22;13689;48.590;7.752;2023-10-31T10:08:16;15.50;87.10
25871;DHT22;13689;48.590;7.752;2023-10-31T10:10:42;15.80;87.00
25871;DHT22;13689;48.590;7.752;2023-10-31T10:13:08;16.10;86.20
25871;DHT22;13689;48.590;7.752;2023-10-31T10:15:45;16.10;85.40
25871;DHT22;13689;48.590;7.752;2023-10-31T10:18:14;15.80;85.30
25871;DHT22;13689;48.590;7.752;2023-10-31T10:23:22;15.40;85.30
25871;DHT22;13689;48.590;7.752;2023-10-31T10:25:51;15.30;85.40
25871;DHT22;13689;48.590;7.752;2023-10-31T10:28:17;15.20;85.30
25871;DHT22;13689;48.590;7.752;2023-10-31T10:30:45;15.10;85.50
25871;DHT22;13689;48.590;7.752;2023-10-31T10:33:12;15.00;85.60
25871;DHT22;13689;48.590;7.752;2023-10-31T10:35:38;15.10;85.90
25871;DHT22;13689;48.590;7.752;2023-10-31T10:38:07;15.00;85.90
25871;DHT22;13689;48.590;7.752;2023-10-31T10:40:35;14.90;85.90
25871;DHT22;13689;48.590;7.752;2023-10-31T10:43:04;14.80;86.20
25871;DHT22;13689;48.590;7.752;2023-10-31T10:45:35;14.80;86.70
25871;DHT22;13689;48.590;7.752;2023-10-31T10:48:04;14.80;87.10
25871;DHT22;13689;48.590;7.752;2023-10-31T10:50:31;14.80;87.30
25871;DHT22;13689;48.590;7.752;2023-10-31T10:55:47;14.90;87.80
25871;DHT22;13689;48.590;7.752;2023-10-31T11:01:01;14.90;88.00
25871;DHT22;13689;48.590;7.752;2023-10-31T11:03:29;14.90;88.20
25871;DHT22;13689;48.590;7.752;2023-10-31T11:05:55;14.90;88.40
25871;DHT22;13689;48.590;7.752;2023-10-31T11:08:23;14.90;88.40
25871;DHT22;13689;48.590;7.752;2023-10-31T11:10:52;14.90;88.60
25871;DHT22;13689;48.590;7.752;2023-10-31T11:13:19;14.90;88.90
25871;DHT22;13689;48.590;7.752;2023-10-31T11:15:46;15.00;89.00
25871;DHT22;13689;48.590;7.752;2023-10-31T11:18:12;15.00;89.20
25871;DHT22;13689;48.590;7.752;2023-10-31T11:20:38;15.00;89.10
25871;DHT22;13689;48.590;7.752;2023-10-31T11:23:04;15.10;89.20
25871;DHT22;13689;48.590;7.752;2023-10-31T11:25:32;15.20;90.00
25871;DHT22;13689;48.590;7.752;2023-10-31T11:28:14;15.40;89.20
25871;DHT22;13689;48.590;7.752;2023-10-31T11:30:41;15.50;88.80
25871;DHT22;13689;48.590;7.752;2023-10-31T11:33:12;15.40;88.50
25871;DHT22;13689;48.590;7.752;2023-10-31T11:35:39;15.30;88.60
25871;DHT22;13689;48.590;7.752;2023-10-31T11:38:08;15.20;88.70
25871;DHT22;13689;48.590;7.752;2023-10-31T11:43:14;15.30;89.00
25871;DHT22;13689;48.590;7.752;2023-10-31T11:45:41;15.40;88.90
25871;DHT22;13689;48.590;7.752;2023-10-31T11:48:14;15.40;88.80
25871;DHT22;13689;48.590;7.752;2023-10-31T11:50:40;15.40;88.90
25871;DHT22;13689;48.590;7.752;2023-10-31T11:53:07;15.50;88.70
25871;DHT22;13689;48.590;7.752;2023-10-31T11:55:35;15.60;88.50
25871;DHT22;13689;48.590;7.752;2023-10-31T11:58:21;15.70;88.40
25871;DHT22;13689;48.590;7.752;2023-10-31T12:00:58;15.70;88.00
25871;DHT22;13689;48.590;7.752;2023-10-31T12:03:26;15.70;87.90
25871;DHT22;13689;48.590;7.752;2023-10-31T12:05:55;15.70;87.80
25871;DHT22;13689;48.590;7.752;2023-10-31T12:10:51;15.70;87.60
25871;DHT22;13689;48.590;7.752;2023-10-31T12:13:17;15.70;87.30
25871;DHT22;13689;48.590;7.752;2023-10-31T12:15:52;15.60;87.10
25871;DHT22;13689;48.590;7.752;2023-10-31T12:18:18;15.70;87.10
25871;DHT22;13689;48.590;7.752;2023-10-31T12:20:51;15.70;86.80
25871;DHT22;13689;48.590;7.752;2023-10-31T12:23:19;15.70;86.50
25871;DHT22;13689;48.590;7.752;2023-10-31T12:25:47;15.70;86.30
25871;DHT22;13689;48.590;7.752;2023-10-31T12:28:17;15.60;86.00
25871;DHT22;13689;48.590;7.752;2023-10-31T12:30:50;15.60;85.90
25871;DHT22;13689;48.590;7.752;2023-10-31T12:33:17;15.50;85.70
25871;DHT22;13689;48.590;7.752;2023-10-31T12:35:43;15.50;85.80
25871;DHT22;13689;48.590;7.752;2023-10-31T12:38:15;15.50;85.70
25871;DHT22;13689;48.590;7.752;2023-10-31T12:40:43;15.40;85.30
25871;DHT22;13689;48.590;7.752;2023-10-31T12:43:09;15.40;85.30
25871;DHT22;13689;48.590;7.752;2023-10-31T12:45:35;15.40;85.20
25871;DHT22;13689;48.590;7.752;2023-10-31T12:48:02;15.40;85.00
25871;DHT22;13689;48.590;7.752;2023-10-31T12:50:29;15.40;85.00
25871;DHT22;13689;48.590;7.752;2023-10-31T12:52:55;15.30;84.80
25871;DHT22;13689;48.590;7.752;2023-10-31T12:55:25;15.30;84.70
25871;DHT22;13689;48.590;7.752;2023-10-31T12:57:51;15.30;84.90
25871;DHT22;13689;48.590;7.752;2023-10-31T13:00:19;15.30;85.00
25871;DHT22;13689;48.590;7.752;2023-10-31T13:02:51;15.30;84.90
25871;DHT22;13689;48.590;7.752;2023-10-31T13:05:17;15.30;84.80
25871;DHT22;13689;48.590;7.752;2023-10-31T13:07:50;15.40;84.80
25871;DHT22;13689;48.590;7.752;2023-10-31T13:10:17;15.40;84.60
25871;DHT22;13689;48.590;7.752;2023-10-31T13:12:46;15.40;84.40
25871;DHT22;13689;48.590;7.752;2023-10-31T13:15:16;15.40;84.30
25871;DHT22;13689;48.590;7.752;2023-10-31T13:17:42;15.40;84.10
25871;DHT22;13689;48.590;7.752;2023-10-31T13:20:12;15.30;83.90
25871;DHT22;13689;48.590;7.752;2023-10-31T13:22:39;15.40;83.70
25871;DHT22;13689;48.590;7.752;2023-10-31T13:25:06;15.40;83.60
25871;DHT22;13689;48.590;7.752;2023-10-31T13:27:42;15.40;83.40
25871;DHT22;13689;48.590;7.752;2023-10-31T13:30:10;15.40;83.00
25871;DHT22;13689;48.590;7.752;2023-10-31T13:32:37;15.40;82.90
25871;DHT22;13689;48.590;7.752;2023-10-31T13:35:03;15.40;82.70
25871;DHT22;13689;48.590;7.752;2023-10-31T13:37:28;15.40;82.50
25871;DHT22;13689;48.590;7.752;2023-10-31T13:39:54;15.30;82.40
25871;DHT22;13689;48.590;7.752;2023-10-31T13:42:20;15.30;82.40
25871;DHT22;13689;48.590;7.752;2023-10-31T13:44:45;15.30;82.40
25871;DHT22;13689;48.590;7.752;2023-10-31T13:47:11;15.20;82.50
25871;DHT22;13689;48.590;7.752;2023-10-31T13:49:37;15.10;82.90
25871;DHT22;13689;48.590;7.752;2023-10-31T13:52:03;15.00;83.40
25871;DHT22;13689;48.590;7.752;2023-10-31T13:54:30;15.00;83.80
25871;DHT22;13689;48.590;7.752;2023-10-31T13:56:56;15.00;84.30
25871;DHT22;13689;48.590;7.752;2023-10-31T13:59:21;15.00;84.60
25871;DHT22;13689;48.590;7.752;2023-10-31T14:01:51;15.10;84.90
25871;DHT22;13689;48.590;7.752;2023-10-31T14:04:18;15.00;84.80
25871;DHT22;13689;48.590;7.752;2023-10-31T14:06:44;15.10;84.80
25871;DHT22;13689;48.590;7.752;2023-10-31T14:09:10;15.10;84.90
25871;DHT22;13689;48.590;7.752;2023-10-31T14:11:37;15.10;84.90
25871;DHT22;13689;48.590;7.752;2023-10-31T14:14:03;15.20;84.90
25871;DHT22;13689;48.590;7.752;2023-10-31T14:16:32;15.20;84.80
25871;DHT22;13689;48.590;7.752;2023-10-31T14:18:58;15.30;84.60
25871;DHT22;13689;48.590;7.752;2023-10-31T14:21:24;15.30;84.50
25871;DHT22;13689;48.590;7.752;2023-10-31T14:23:51;15.30;84.20
25871;DHT22;13689;48.590;7.752;2023-10-31T14:26:22;15.30;84.10
25871;DHT22;13689;48.590;7.752;2023-10-31T14:28:48;15.30;84.00
25871;DHT22;13689;48.590;7.752;2023-10-31T14:31:15;15.30;84.10
25871;DHT22;13689;48.590;7.752;2023-10-31T14:33:41;15.20;84.00
25871;DHT22;13689;48.590;7.752;2023-10-31T14:36:07;15.20;84.00
25871;DHT22;13689;48.590;7.752;2023-10-31T14:38:35;15.20;84.00
25871;DHT22;13689;48.590;7.752;2023-10-31T14:41:01;15.10;84.00
25871;DHT22;13689;48.590;7.752;2023-10-31T14:43:27;15.20;84.10
25871;DHT22;13689;48.590;7.752;2023-10-31T14:45:53;15.20;84.00
25871;DHT22;13689;48.590;7.752;2023-10-31T14:48:20;15.20;84.00
25871;DHT22;13689;48.590;7.752;2023-10-31T14:50:46;15.20;83.80
25871;DHT22;13689;48.590;7.752;2023-10-31T14:53:12;15.20;83.60
25871;DHT22;13689;48.590;7.752;2023-10-31T14:55:38;15.20;83.40
25871;DHT22;13689;48.590;7.752;2023-10-31T14:58:04;15.30;83.20
25871;DHT22;13689;48.590;7.752;2023-10-31T15:00:29;15.30;83.10
25871;DHT22;13689;48.590;7.752;2023-10-31T15:02:56;15.30;82.90
25871;DHT22;13689;48.590;7.752;2023-10-31T15:05:22;15.20;82.70
25871;DHT22;13689;48.590;7.752;2023-10-31T15:07:48;15.20;82.70
25871;DHT22;13689;48.590;7.752;2023-10-31T15:10:14;15.10;82.90
25871;DHT22;13689;48.590;7.752;2023-10-31T15:12:39;15.00;83.00
25871;DHT22;13689;48.590;7.752;2023-10-31T15:15:07;15.00;83.00
25871;DHT22;13689;48.590;7.752;2023-10-31T15:17:33;15.00;83.00
25871;DHT22;13689;48.590;7.752;2023-10-31T15:19:59;14.90;83.00
25871;DHT22;13689;48.590;7.752;2023-10-31T15:22:24;14.90;83.10
25871;DHT22;13689;48.590;7.752;2023-10-31T15:24:50;14.90;83.10
25871;DHT22;13689;48.590;7.752;2023-10-31T15:27:15;14.90;83.10
25871;DHT22;13689;48.590;7.752;2023-10-31T15:29:43;14.90;83.00
25871;DHT22;13689;48.590;7.752;2023-10-31T15:32:09;14.90;83.10
25871;DHT22;13689;48.590;7.752;2023-10-31T15:34:35;14.80;83.10
25871;DHT22;13689;48.590;7.752;2023-10-31T15:37:04;14.80;83.10